sensor_id;sensor_type;location;lat;lon;timestamp;P1;durP1;ratioP1;P2;durP2;ratioP2
75912;SDS011;64592;52.168;21.040;2024-01-06T00:00:17;13.90;;;6.60;;
75912;SDS011;64592;52.168;21.040;2024-01-06T00:05:21;14.95;;;6.30;;
75912;SDS011;64592;52.168;21.040;2024-01-06T00:10:24;10.10;;;6.45;;
75912;SDS011;64592;52.168;21.040;2024-01-06T00:15:26;11.77;;;6.47;;
75912;SDS011;64592;52.168;21.040;2024-01-06T00:20:28;11.05;;;7.13;;
75912;SDS011;64592;52.168;21.040;2024-01-06T00:25:31;17.58;;;7.35;;
75912;SDS011;64592;52.168;21.040;2024-01-06T00:30:32;20.80;;;9.55;;
75912;SDS011;64592;52.168;21.040;2024-01-06T00:35:34;16.67;;;8.55;;
75912;SDS011;64592;52.168;21.040;2024-01-06T00:45:38;23.65;;;10.32;;
75912;SDS011;64592;52.168;21.040;2024-01-06T00:55:43;19.77;;;10.85;;
75912;SDS011;64592;52.168;21.040;2024-01-06T01:00:44;21.73;;;9.70;;
75912;SDS011;64592;52.168;21.040;2024-01-06T01:10:49;18.40;;;8.48;;
75912;SDS011;64592;52.168;21.040;2024-01-06T01:15:51;13.13;;;7.50;;
75912;SDS011;64592;52.168;21.040;2024-01-06T01:20:52;19.75;;;9.32;;
75912;SDS011;64592;52.168;21.040;2024-01-06T01:25:56;15.20;;;7.28;;
75912;SDS011;64592;52.168;21.040;2024-01-06T01:30:58;19.17;;;9.48;;
75912;SDS011;64592;52.168;21.040;2024-01-06T01:41:02;15.60;;;8.05;;
75912;SDS011;64592;52.168;21.040;2024-01-06T01:46:04;18.30;;;8.88;;
75912;SDS011;64592;52.168;21.040;2024-01-06T01:51:06;16.20;;;8.80;;
75912;SDS011;64592;52.168;21.040;2024-01-06T01:56:11;16.25;;;7.43;;
75912;SDS011;64592;52.168;21.040;2024-01-06T02:01:13;14.45;;;6.97;;
75912;SDS011;64592;52.168;21.040;2024-01-06T02:06:16;15.43;;;8.15;;
75912;SDS011;64592;52.168;21.040;2024-01-06T02:16:20;13.52;;;6.45;;
75912;SDS011;64592;52.168;21.040;2024-01-06T02:21:22;16.80;;;7.75;;
75912;SDS011;64592;52.168;21.040;2024-01-06T02:26:26;13.23;;;6.57;;
75912;SDS011;64592;52.168;21.040;2024-01-06T02:31:27;13.38;;;7.30;;
75912;SDS011;64592;52.168;21.040;2024-01-06T02:41:31;13.38;;;5.65;;
75912;SDS011;64592;52.168;21.040;2024-01-06T02:46:33;16.90;;;7.22;;
75912;SDS011;64592;52.168;21.040;2024-01-06T02:56:38;12.80;;;6.15;;
75912;SDS011;64592;52.168;21.040;2024-01-06T03:01:39;16.45;;;5.85;;
75912;SDS011;64592;52.168;21.040;2024-01-06T03:06:41;13.30;;;5.20;;
75912;SDS011;64592;52.168;21.040;2024-01-06T03:11:44;10.85;;;5.20;;
75912;SDS011;64592;52.168;21.040;2024-01-06T03:16:45;13.15;;;6.07;;
75912;SDS011;64592;52.168;21.040;2024-01-06T03:21:47;13.52;;;4.97;;
75912;SDS011;64592;52.168;21.040;2024-01-06T03:26:50;11.43;;;5.35;;
75912;SDS011;64592;52.168;21.040;2024-01-06T03:31:52;8.65;;;4.75;;
75912;SDS011;64592;52.168;21.040;2024-01-06T03:41:56;9.75;;;5.18;;
75912;SDS011;64592;52.168;21.040;2024-01-06T03:46:58;8.55;;;4.05;;
75912;SDS011;64592;52.168;21.040;2024-01-06T03:51:59;9.05;;;5.43;;
75912;SDS011;64592;52.168;21.040;2024-01-06T03:57:02;9.55;;;5.30;;
75912;SDS011;64592;52.168;21.040;2024-01-06T04:02:04;9.88;;;5.57;;
75912;SDS011;64592;52.168;21.040;2024-01-06T04:12:08;14.30;;;5.47;;
75912;SDS011;64592;52.168;21.040;2024-01-06T04:17:10;14.38;;;7.07;;
75912;SDS011;64592;52.168;21.040;2024-01-06T04:22:12;10.55;;;5.47;;
75912;SDS011;64592;52.168;21.040;2024-01-06T04:27:15;10.85;;;5.60;;
75912;SDS011;64592;52.168;21.040;2024-01-06T04:32:17;10.15;;;5.90;;
75912;SDS011;64592;52.168;21.040;2024-01-06T04:37:18;13.48;;;6.15;;
75912;SDS011;64592;52.168;21.040;2024-01-06T04:42:21;11.10;;;6.10;;
75912;SDS011;64592;52.168;21.040;2024-01-06T04:47:23;13.75;;;5.53;;
75912;SDS011;64592;52.168;21.040;2024-01-06T04:52:25;15.77;;;6.70;;
75912;SDS011;64592;52.168;21.040;2024-01-06T04:57:28;14.85;;;6.90;;
75912;SDS011;64592;52.168;21.040;2024-01-06T05:02:29;13.35;;;7.25;;
75912;SDS011;64592;52.168;21.040;2024-01-06T05:07:31;15.35;;;7.53;;
75912;SDS011;64592;52.168;21.040;2024-01-06T05:12:34;17.85;;;7.43;;
75912;SDS011;64592;52.168;21.040;2024-01-06T05:17:35;13.00;;;5.85;;
75912;SDS011;64592;52.168;21.040;2024-01-06T05:22:37;13.00;;;6.90;;
75912;SDS011;64592;52.168;21.040;2024-01-06T05:27:40;13.98;;;6.00;;
75912;SDS011;64592;52.168;21.040;2024-01-06T05:32:42;9.98;;;5.03;;
75912;SDS011;64592;52.168;21.040;2024-01-06T05:37:43;11.52;;;6.30;;
75912;SDS011;64592;52.168;21.040;2024-01-06T05:42:46;9.48;;;4.63;;
75912;SDS011;64592;52.168;21.040;2024-01-06T05:47:48;10.48;;;5.55;;
75912;SDS011;64592;52.168;21.040;2024-01-06T05:52:50;14.02;;;5.88;;
75912;SDS011;64592;52.168;21.040;2024-01-06T05:57:53;9.48;;;5.32;;
75912;SDS011;64592;52.168;21.040;2024-01-06T06:02:55;10.48;;;5.88;;
75912;SDS011;64592;52.168;21.040;2024-01-06T06:07:56;10.80;;;5.45;;
75912;SDS011;64592;52.168;21.040;2024-01-06T06:12:59;9.80;;;5.40;;
75912;SDS011;64592;52.168;21.040;2024-01-06T06:18:01;15.07;;;5.68;;
75912;SDS011;64592;52.168;21.040;2024-01-06T06:23:03;13.25;;;6.13;;
75912;SDS011;64592;52.168;21.040;2024-01-06T06:28:06;9.82;;;5.05;;
75912;SDS011;64592;52.168;21.040;2024-01-06T06:33:07;10.63;;;5.90;;
75912;SDS011;64592;52.168;21.040;2024-01-06T06:38:09;7.63;;;4.82;;
75912;SDS011;64592;52.168;21.040;2024-01-06T06:48:13;15.25;;;7.13;;
75912;SDS011;64592;52.168;21.040;2024-01-06T06:53:15;12.73;;;6.28;;
75912;SDS011;64592;52.168;21.040;2024-01-06T06:58:18;10.85;;;5.75;;
75912;SDS011;64592;52.168;21.040;2024-01-06T07:03:20;10.75;;;6.40;;
75912;SDS011;64592;52.168;21.040;2024-01-06T07:08:22;14.55;;;7.32;;
75912;SDS011;64592;52.168;21.040;2024-01-06T07:13:25;14.98;;;6.45;;
75912;SDS011;64592;52.168;21.040;2024-01-06T07:18:26;13.32;;;7.30;;
75912;SDS011;64592;52.168;21.040;2024-01-06T07:23:28;19.58;;;7.10;;
75912;SDS011;64592;52.168;21.040;2024-01-06T07:33:32;11.77;;;5.78;;
75912;SDS011;64592;52.168;21.040;2024-01-06T07:38:34;10.05;;;5.97;;
75912;SDS011;64592;52.168;21.040;2024-01-06T07:43:38;14.27;;;7.45;;
75912;SDS011;64592;52.168;21.040;2024-01-06T07:48:39;13.00;;;6.57;;
75912;SDS011;64592;52.168;21.040;2024-01-06T07:53:41;17.10;;;8.05;;
75912;SDS011;64592;52.168;21.040;2024-01-06T07:58:44;16.10;;;7.18;;
75912;SDS011;64592;52.168;21.040;2024-01-06T08:03:46;13.95;;;7.30;;
75912;SDS011;64592;52.168;21.040;2024-01-06T08:08:47;13.65;;;8.15;;
75912;SDS011;64592;52.168;21.040;2024-01-06T08:18:52;16.45;;;7.07;;
75912;SDS011;64592;52.168;21.040;2024-01-06T08:23:54;16.98;;;8.13;;
75912;SDS011;64592;52.168;21.040;2024-01-06T08:28:57;16.08;;;6.70;;
75912;SDS011;64592;52.168;21.040;2024-01-06T08:33:58;14.07;;;6.80;;
75912;SDS011;64592;52.168;21.040;2024-01-06T08:39:00;15.48;;;6.57;;
75912;SDS011;64592;52.168;21.040;2024-01-06T08:44:04;14.18;;;8.25;;
75912;SDS011;64592;52.168;21.040;2024-01-06T08:49:05;17.63;;;7.55;;
75912;SDS011;64592;52.168;21.040;2024-01-06T08:59:10;14.32;;;5.72;;
75912;SDS011;64592;52.168;21.040;2024-01-06T09:04:11;17.35;;;6.18;;
75912;SDS011;64592;52.168;21.040;2024-01-06T09:09:13;17.88;;;7.55;;
75912;SDS011;64592;52.168;21.040;2024-01-06T09:14:17;17.52;;;7.25;;
75912;SDS011;64592;52.168;21.040;2024-01-06T09:19:19;16.38;;;7.60;;
75912;SDS011;64592;52.168;21.040;2024-01-06T09:24:22;16.02;;;6.60;;
75912;SDS011;64592;52.168;21.040;2024-01-06T09:29:25;11.70;;;6.50;;
75912;SDS011;64592;52.168;21.040;2024-01-06T09:34:26;13.85;;;6.07;;
75912;SDS011;64592;52.168;21.040;2024-01-06T09:39:28;10.13;;;4.95;;
75912;SDS011;64592;52.168;21.040;2024-01-06T09:44:32;12.35;;;6.10;;
75912;SDS011;64592;52.168;21.040;2024-01-06T09:49:34;10.20;;;4.95;;
75912;SDS011;64592;52.168;21.040;2024-01-06T09:54:39;11.32;;;7.22;;
75912;SDS011;64592;52.168;21.040;2024-01-06T09:59:49;10.23;;;5.70;;
75912;SDS011;64592;52.168;21.040;2024-01-06T10:04:51;14.25;;;6.80;;
75912;SDS011;64592;52.168;21.040;2024-01-06T10:09:54;10.70;;;5.45;;
75912;SDS011;64592;52.168;21.040;2024-01-06T10:14:57;11.18;;;5.90;;
75912;SDS011;64592;52.168;21.040;2024-01-06T10:19:59;13.00;;;6.72;;
75912;SDS011;64592;52.168;21.040;2024-01-06T10:25:01;13.02;;;6.00;;
75912;SDS011;64592;52.168;21.040;2024-01-06T10:30:05;9.73;;;5.70;;
75912;SDS011;64592;52.168;21.040;2024-01-06T10:35:08;14.93;;;6.32;;
75912;SDS011;64592;52.168;21.040;2024-01-06T10:40:10;14.73;;;6.68;;
75912;SDS011;64592;52.168;21.040;2024-01-06T10:45:14;9.77;;;5.50;;
75912;SDS011;64592;52.168;21.040;2024-01-06T10:50:16;11.68;;;6.00;;
75912;SDS011;64592;52.168;21.040;2024-01-06T10:55:19;10.70;;;5.57;;
75912;SDS011;64592;52.168;21.040;2024-01-06T11:00:23;8.57;;;5.10;;
75912;SDS011;64592;52.168;21.040;2024-01-06T11:05:25;13.13;;;6.15;;
75912;SDS011;64592;52.168;21.040;2024-01-06T11:10:28;9.00;;;4.90;;
75912;SDS011;64592;52.168;21.040;2024-01-06T11:15:43;10.77;;;5.68;;
75912;SDS011;64592;52.168;21.040;2024-01-06T11:26:19;7.82;;;4.55;;
75912;SDS011;64592;52.168;21.040;2024-01-06T11:31:22;8.70;;;4.25;;
75912;SDS011;64592;52.168;21.040;2024-01-06T11:36:23;9.38;;;4.90;;
75912;SDS011;64592;52.168;21.040;2024-01-06T11:41:47;7.65;;;4.47;;
75912;SDS011;64592;52.168;21.040;2024-01-06T11:46:51;11.23;;;4.97;;
75912;SDS011;64592;52.168;21.040;2024-01-06T11:51:57;9.48;;;4.82;;
75912;SDS011;64592;52.168;21.040;2024-01-06T11:56:59;12.27;;;5.90;;
75912;SDS011;64592;52.168;21.040;2024-01-06T12:07:07;11.50;;;5.45;;
75912;SDS011;64592;52.168;21.040;2024-01-06T12:12:09;15.65;;;6.30;;
75912;SDS011;64592;52.168;21.040;2024-01-06T12:17:12;7.53;;;4.97;;
75912;SDS011;64592;52.168;21.040;2024-01-06T12:22:14;8.23;;;4.50;;
75912;SDS011;64592;52.168;21.040;2024-01-06T12:27:16;7.55;;;4.45;;
75912;SDS011;64592;52.168;21.040;2024-01-06T12:32:20;10.10;;;4.78;;
75912;SDS011;64592;52.168;21.040;2024-01-06T12:37:22;12.45;;;5.53;;
75912;SDS011;64592;52.168;21.040;2024-01-06T12:42:24;8.27;;;4.32;;
75912;SDS011;64592;52.168;21.040;2024-01-06T12:47:27;10.52;;;5.38;;
75912;SDS011;64592;52.168;21.040;2024-01-06T12:52:29;7.75;;;4.03;;
75912;SDS011;64592;52.168;21.040;2024-01-06T13:02:33;7.50;;;5.00;;
75912;SDS011;64592;52.168;21.040;2024-01-06T13:07:35;6.43;;;3.17;;
75912;SDS011;64592;52.168;21.040;2024-01-06T13:12:36;8.90;;;4.18;;
75912;SDS011;64592;52.168;21.040;2024-01-06T13:17:39;10.82;;;4.97;;
75912;SDS011;64592;52.168;21.040;2024-01-06T13:22:41;6.10;;;3.45;;
75912;SDS011;64592;52.168;21.040;2024-01-06T13:27:43;11.05;;;4.43;;
75912;SDS011;64592;52.168;21.040;2024-01-06T13:37:48;10.50;;;4.18;;
75912;SDS011;64592;52.168;21.040;2024-01-06T13:42:51;9.52;;;3.85;;
75912;SDS011;64592;52.168;21.040;2024-01-06T13:47:55;5.95;;;3.45;;
75912;SDS011;64592;52.168;21.040;2024-01-06T13:52:57;7.75;;;4.22;;
75912;SDS011;64592;52.168;21.040;2024-01-06T13:58:00;6.50;;;3.03;;
75912;SDS011;64592;52.168;21.040;2024-01-06T14:03:03;10.18;;;3.72;;
75912;SDS011;64592;52.168;21.040;2024-01-06T14:08:06;9.20;;;3.63;;
75912;SDS011;64592;52.168;21.040;2024-01-06T14:13:09;5.32;;;2.80;;
75912;SDS011;64592;52.168;21.040;2024-01-06T14:23:16;7.05;;;3.30;;
75912;SDS011;64592;52.168;21.040;2024-01-06T14:28:20;5.00;;;3.17;;
75912;SDS011;64592;52.168;21.040;2024-01-06T14:33:23;7.85;;;4.25;;
75912;SDS011;64592;52.168;21.040;2024-01-06T14:38:24;7.53;;;3.38;;
75912;SDS011;64592;52.168;21.040;2024-01-06T14:43:26;4.88;;;3.03;;
75912;SDS011;64592;52.168;21.040;2024-01-06T14:48:29;5.72;;;3.08;;
75912;SDS011;64592;52.168;21.040;2024-01-06T14:53:31;4.25;;;3.35;;
75912;SDS011;64592;52.168;21.040;2024-01-06T14:58:34;6.90;;;3.55;;
75912;SDS011;64592;52.168;21.040;2024-01-06T15:03:37;5.50;;;3.13;;
75912;SDS011;64592;52.168;21.040;2024-01-06T15:08:39;9.48;;;4.07;;
75912;SDS011;64592;52.168;21.040;2024-01-06T15:13:41;10.02;;;3.97;;
75912;SDS011;64592;52.168;21.040;2024-01-06T15:18:44;7.28;;;4.22;;
75912;SDS011;64592;52.168;21.040;2024-01-06T15:23:45;7.70;;;3.75;;
75912;SDS011;64592;52.168;21.040;2024-01-06T15:33:49;6.05;;;2.92;;
75912;SDS011;64592;52.168;21.040;2024-01-06T15:38:51;5.80;;;3.17;;
75912;SDS011;64592;52.168;21.040;2024-01-06T15:48:55;7.78;;;3.08;;
75912;SDS011;64592;52.168;21.040;2024-01-06T15:53:57;7.53;;;3.20;;
75912;SDS011;64592;52.168;21.040;2024-01-06T15:58:59;4.82;;;2.80;;
75912;SDS011;64592;52.168;21.040;2024-01-06T16:09:03;6.57;;;3.45;;
75912;SDS011;64592;52.168;21.040;2024-01-06T16:14:06;8.43;;;4.18;;
75912;SDS011;64592;52.168;21.040;2024-01-06T16:19:09;5.18;;;2.90;;
75912;SDS011;64592;52.168;21.040;2024-01-06T16:24:13;3.40;;;2.15;;
75912;SDS011;64592;52.168;21.040;2024-01-06T16:34:18;6.60;;;3.70;;
75912;SDS011;64592;52.168;21.040;2024-01-06T16:39:20;4.60;;;2.67;;
75912;SDS011;64592;52.168;21.040;2024-01-06T16:44:21;4.45;;;2.85;;
75912;SDS011;64592;52.168;21.040;2024-01-06T16:49:24;6.40;;;3.35;;
75912;SDS011;64592;52.168;21.040;2024-01-06T16:54:27;3.38;;;2.30;;
75912;SDS011;64592;52.168;21.040;2024-01-06T16:59:30;5.18;;;2.90;;
75912;SDS011;64592;52.168;21.040;2024-01-06T17:04:34;7.47;;;3.22;;
75912;SDS011;64592;52.168;21.040;2024-01-06T17:09:37;9.15;;;3.00;;
75912;SDS011;64592;52.168;21.040;2024-01-06T17:14:39;3.78;;;2.10;;
75912;SDS011;64592;52.168;21.040;2024-01-06T17:24:43;8.50;;;3.20;;
75912;SDS011;64592;52.168;21.040;2024-01-06T17:29:45;6.70;;;3.50;;
75912;SDS011;64592;52.168;21.040;2024-01-06T17:34:48;4.50;;;2.88;;
75912;SDS011;64592;52.168;21.040;2024-01-06T17:39:49;5.93;;;3.05;;
75912;SDS011;64592;52.168;21.040;2024-01-06T17:44:51;8.73;;;3.25;;
75912;SDS011;64592;52.168;21.040;2024-01-06T17:49:55;7.00;;;2.92;;
75912;SDS011;64592;52.168;21.040;2024-01-06T17:54:56;9.80;;;3.47;;
75912;SDS011;64592;52.168;21.040;2024-01-06T17:59:58;6.68;;;2.95;;
75912;SDS011;64592;52.168;21.040;2024-01-06T18:05:01;8.07;;;3.38;;
75912;SDS011;64592;52.168;21.040;2024-01-06T18:10:03;7.45;;;3.67;;
75912;SDS011;64592;52.168;21.040;2024-01-06T18:15:05;5.35;;;3.08;;
75912;SDS011;64592;52.168;21.040;2024-01-06T18:20:09;9.40;;;4.18;;
75912;SDS011;64592;52.168;21.040;2024-01-06T18:25:11;5.80;;;3.20;;
75912;SDS011;64592;52.168;21.040;2024-01-06T18:35:16;5.60;;;2.53;;
75912;SDS011;64592;52.168;21.040;2024-01-06T18:40:18;5.10;;;2.55;;
75912;SDS011;64592;52.168;21.040;2024-01-06T18:45:20;6.00;;;3.25;;
75912;SDS011;64592;52.168;21.040;2024-01-06T18:55:25;3.83;;;2.50;;
75912;SDS011;64592;52.168;21.040;2024-01-06T19:00:29;5.97;;;3.20;;
75912;SDS011;64592;52.168;21.040;2024-01-06T19:05:32;4.28;;;2.38;;
75912;SDS011;64592;52.168;21.040;2024-01-06T19:10:33;6.60;;;3.20;;
75912;SDS011;64592;52.168;21.040;2024-01-06T19:15:35;4.95;;;3.53;;
75912;SDS011;64592;52.168;21.040;2024-01-06T19:20:40;5.45;;;2.65;;
75912;SDS011;64592;52.168;21.040;2024-01-06T19:25:42;9.57;;;3.45;;
75912;SDS011;64592;52.168;21.040;2024-01-06T19:30:43;5.57;;;3.13;;
75912;SDS011;64592;52.168;21.040;2024-01-06T19:35:47;3.72;;;2.65;;
75912;SDS011;64592;52.168;21.040;2024-01-06T19:40:48;5.70;;;3.30;;
75912;SDS011;64592;52.168;21.040;2024-01-06T19:45:51;7.15;;;3.65;;
75912;SDS011;64592;52.168;21.040;2024-01-06T19:50:55;6.78;;;2.90;;
75912;SDS011;64592;52.168;21.040;2024-01-06T19:55:58;5.30;;;2.75;;
75912;SDS011;64592;52.168;21.040;2024-01-06T20:01:01;8.52;;;2.55;;
75912;SDS011;64592;52.168;21.040;2024-01-06T20:11:09;7.13;;;3.25;;
75912;SDS011;64592;52.168;21.040;2024-01-06T20:16:11;5.88;;;3.03;;
75912;SDS011;64592;52.168;21.040;2024-01-06T20:21:14;6.40;;;3.33;;
75912;SDS011;64592;52.168;21.040;2024-01-06T20:26:16;3.90;;;2.78;;
75912;SDS011;64592;52.168;21.040;2024-01-06T20:31:18;8.77;;;3.30;;
75912;SDS011;64592;52.168;21.040;2024-01-06T20:36:21;9.43;;;3.90;;
75912;SDS011;64592;52.168;21.040;2024-01-06T20:41:22;10.32;;;4.95;;
75912;SDS011;64592;52.168;21.040;2024-01-06T20:46:24;8.40;;;3.90;;
75912;SDS011;64592;52.168;21.040;2024-01-06T20:51:27;10.50;;;3.90;;
75912;SDS011;64592;52.168;21.040;2024-01-06T20:56:29;8.85;;;4.13;;
75912;SDS011;64592;52.168;21.040;2024-01-06T21:01:31;5.80;;;3.22;;
75912;SDS011;64592;52.168;21.040;2024-01-06T21:06:34;11.45;;;5.00;;
75912;SDS011;64592;52.168;21.040;2024-01-06T21:11:36;5.82;;;4.07;;
75912;SDS011;64592;52.168;21.040;2024-01-06T21:16:38;10.70;;;4.15;;
75912;SDS011;64592;52.168;21.040;2024-01-06T21:26:45;7.20;;;3.45;;
75912;SDS011;64592;52.168;21.040;2024-01-06T21:31:46;6.70;;;4.10;;
75912;SDS011;64592;52.168;21.040;2024-01-06T21:36:49;7.80;;;4.57;;
75912;SDS011;64592;52.168;21.040;2024-01-06T21:41:51;9.07;;;4.45;;
75912;SDS011;64592;52.168;21.040;2024-01-06T21:51:55;7.35;;;3.05;;
75912;SDS011;64592;52.168;21.040;2024-01-06T21:56:57;8.48;;;3.40;;
75912;SDS011;64592;52.168;21.040;2024-01-06T22:01:59;5.07;;;3.60;;
75912;SDS011;64592;52.168;21.040;2024-01-06T22:07:02;10.18;;;3.90;;
75912;SDS011;64592;52.168;21.040;2024-01-06T22:12:04;11.02;;;6.03;;
75912;SDS011;64592;52.168;21.040;2024-01-06T22:17:05;12.70;;;4.40;;
75912;SDS011;64592;52.168;21.040;2024-01-06T22:22:08;8.50;;;5.55;;
75912;SDS011;64592;52.168;21.040;2024-01-06T22:27:10;7.03;;;4.18;;
75912;SDS011;64592;52.168;21.040;2024-01-06T22:32:12;12.32;;;6.13;;
75912;SDS011;64592;52.168;21.040;2024-01-06T22:37:15;6.50;;;4.22;;
75912;SDS011;64592;52.168;21.040;2024-01-06T22:42:17;11.07;;;5.15;;
75912;SDS011;64592;52.168;21.040;2024-01-06T22:47:18;14.23;;;6.55;;
75912;SDS011;64592;52.168;21.040;2024-01-06T22:52:22;11.93;;;5.55;;
75912;SDS011;64592;52.168;21.040;2024-01-06T22:57:23;11.48;;;5.93;;
75912;SDS011;64592;52.168;21.040;2024-01-06T23:02:25;13.43;;;5.60;;
75912;SDS011;64592;52.168;21.040;2024-01-06T23:07:28;9.23;;;5.10;;
75912;SDS011;64592;52.168;21.040;2024-01-06T23:12:30;12.38;;;5.55;;
75912;SDS011;64592;52.168;21.040;2024-01-06T23:17:31;12.68;;;5.72;;
75912;SDS011;64592;52.168;21.040;2024-01-06T23:22:36;16.35;;;7.55;;
75912;SDS011;64592;52.168;21.040;2024-01-06T23:27:37;13.63;;;7.18;;
75912;SDS011;64592;52.168;21.040;2024-01-06T23:32:40;16.60;;;5.72;;
75912;SDS011;64592;52.168;21.040;2024-01-06T23:37:43;10.27;;;5.85;;
75912;SDS011;64592;52.168;21.040;2024-01-06T23:42:47;15.32;;;7.97;;
75912;SDS011;64592;52.168;21.040;2024-01-06T23:47:49;13.20;;;7.65;;
75912;SDS011;64592;52.168;21.040;2024-01-06T23:52:53;13.27;;;6.75;;
75912;SDS011;64592;52.168;21.040;2024-01-06T23:57:54;14.07;;;7.07;;
